createdAt,value
2023-04-04T00:00:37.187Z,9.38
2023-04-04T00:03:04.412Z,9.54
2023-04-04T00:05:31.708Z,9.19
2023-04-04T00:07:58.872Z,8.96
2023-04-04T00:10:26.219Z,9.16
2023-04-04T00:12:53.437Z,9.10
2023-04-04T00:15:21.052Z,8.97
2023-04-04T00:17:48.181Z,9.01
2023-04-04T00:20:15.423Z,9.02
2023-04-04T00:22:42.616Z,9.10
2023-04-04T00:25:10.831Z,9.16
2023-04-04T00:27:38.022Z,9.04
2023-04-04T00:30:07.082Z,9.08
2023-04-04T00:32:34.243Z,8.84
2023-04-04T00:35:01.576Z,8.80
2023-04-04T00:37:28.990Z,8.82
2023-04-04T00:39:56.392Z,8.80
2023-04-04T00:42:23.722Z,8.68
2023-04-04T00:44:52.648Z,8.74
2023-04-04T00:47:24.748Z,8.51
2023-04-04T00:49:52.522Z,8.60
2023-04-04T00:52:19.773Z,8.55
2023-04-04T00:54:47.226Z,8.66
2023-04-04T00:57:14.956Z,8.54
2023-04-04T00:59:43.120Z,8.36
2023-04-04T01:02:10.428Z,8.59
2023-04-04T01:04:37.908Z,8.46
2023-04-04T01:07:05.196Z,8.44
2023-04-04T01:09:32.804Z,8.34
2023-04-04T01:12:02.391Z,8.28
2023-04-04T01:14:31.435Z,8.44
2023-04-04T01:16:59.497Z,8.21
2023-04-04T01:19:43.756Z,8.06
2023-04-04T01:22:18.220Z,8.05
2023-04-04T01:24:48.119Z,7.95
2023-04-04T01:27:16.260Z,7.96
2023-04-04T01:29:51.600Z,7.93
2023-04-04T01:32:45.464Z,7.84
2023-04-04T01:35:53.806Z,7.87
2023-04-04T01:38:38.905Z,7.88
2023-04-04T01:41:10.415Z,7.88
2023-04-04T01:43:46.611Z,7.74
2023-04-04T01:46:17.238Z,7.84
2023-04-04T01:48:48.663Z,7.90
2023-04-04T01:51:21.583Z,7.83
2023-04-04T01:53:48.757Z,7.76
2023-04-04T01:56:15.933Z,7.82
2023-04-04T01:58:44.013Z,7.73
2023-04-04T02:01:11.470Z,7.66
2023-04-04T02:03:39.205Z,7.76
2023-04-04T02:06:07.806Z,7.81
2023-04-04T02:08:35.164Z,7.62
2023-04-04T02:11:04.075Z,7.49
2023-04-04T02:13:31.291Z,7.45
2023-04-04T02:16:00.909Z,7.39
2023-04-04T02:18:28.295Z,7.47
2023-04-04T02:20:57.492Z,7.41
2023-04-04T02:23:24.910Z,7.40
2023-04-04T02:25:52.232Z,7.30
2023-04-04T02:28:20.598Z,7.24
2023-04-04T02:30:48.477Z,7.15
2023-04-04T02:33:15.745Z,7.22
2023-04-04T02:35:43.068Z,7.03
2023-04-04T02:38:10.729Z,6.90
2023-04-04T02:40:42.806Z,6.88
2023-04-04T02:43:10.359Z,6.87
2023-04-04T02:45:38.523Z,6.81
2023-04-04T02:48:19.937Z,6.72
2023-04-04T02:50:49.876Z,6.65
2023-04-04T02:53:17.386Z,6.56
2023-04-04T02:55:46.366Z,6.49
2023-04-04T02:58:13.924Z,6.49
2023-04-04T03:00:41.657Z,6.49
2023-04-04T03:03:09.169Z,6.43
2023-04-04T03:05:42.135Z,6.43
2023-04-04T03:08:09.441Z,6.39
2023-04-04T03:10:36.792Z,6.42
2023-04-04T03:13:04.460Z,6.43
2023-04-04T03:15:35.029Z,6.48
2023-04-04T03:18:03.409Z,6.50
2023-04-04T03:20:33.045Z,6.59
2023-04-04T03:23:00.328Z,6.59
2023-04-04T03:25:27.533Z,6.64
2023-04-04T03:27:55.243Z,6.70
2023-04-04T03:30:25.437Z,6.73
2023-04-04T03:32:53.476Z,6.78
2023-04-04T03:35:21.122Z,6.93
2023-04-04T03:37:48.413Z,6.85
2023-04-04T03:40:15.786Z,6.98
2023-04-04T03:42:43.092Z,6.90
2023-04-04T03:45:12.477Z,6.82
2023-04-04T03:47:41.728Z,6.77
2023-04-04T03:50:09.939Z,6.80
2023-04-04T03:52:40.927Z,6.91
2023-04-04T03:55:09.204Z,6.87
2023-04-04T03:57:36.793Z,6.70
2023-04-04T04:00:06.944Z,6.63
2023-04-04T04:02:40.590Z,6.62
2023-04-04T04:05:09.767Z,6.61
2023-04-04T04:07:37.905Z,6.54
2023-04-04T04:10:06.425Z,6.60
2023-04-04T04:12:33.672Z,6.57
2023-04-04T04:15:00.894Z,6.49
2023-04-04T04:17:31.040Z,6.47
2023-04-04T04:19:58.571Z,6.42
2023-04-04T04:22:27.592Z,6.31
2023-04-04T04:24:54.725Z,6.42
2023-04-04T04:27:21.973Z,6.39
2023-04-04T04:29:49.209Z,6.26
2023-04-04T04:32:19.835Z,6.22
2023-04-04T04:34:50.636Z,6.08
2023-04-04T04:37:23.628Z,5.99
2023-04-04T04:39:54.007Z,5.85
2023-04-04T04:42:36.671Z,5.77
2023-04-04T04:45:06.550Z,5.72
2023-04-04T04:47:35.574Z,5.71
2023-04-04T04:50:08.095Z,5.73
2023-04-04T04:52:43.320Z,5.72
2023-04-04T04:55:11.714Z,5.67
2023-04-04T04:57:44.507Z,5.68
2023-04-04T05:00:18.605Z,5.60
2023-04-04T05:02:47.855Z,5.66
2023-04-04T05:05:19.834Z,5.58
2023-04-04T05:07:47.602Z,5.53
2023-04-04T05:10:15.327Z,5.50
2023-04-04T05:12:44.841Z,5.33
2023-04-04T05:15:17.254Z,5.33
2023-04-04T05:17:49.172Z,5.34
2023-04-04T05:20:16.445Z,5.36
2023-04-04T05:22:49.033Z,5.29
2023-04-04T05:25:22.499Z,5.37
2023-04-04T05:27:49.771Z,5.43
2023-04-04T05:30:19.878Z,5.42
2023-04-04T05:32:56.940Z,5.40
2023-04-04T05:35:27.943Z,5.62
2023-04-04T05:37:57.089Z,5.55
2023-04-04T05:40:24.314Z,5.48
2023-04-04T05:43:01.990Z,5.55
2023-04-04T05:45:35.727Z,5.52
2023-04-04T05:48:03.927Z,5.52
2023-04-04T05:50:36.721Z,5.57
2023-04-04T05:53:05.984Z,5.55
2023-04-04T05:55:33.176Z,5.67
2023-04-04T05:58:00.690Z,5.62
2023-04-04T06:00:43.581Z,5.55
2023-04-04T06:03:11.033Z,5.62
2023-04-04T06:05:38.514Z,5.49
2023-04-04T06:08:06.868Z,5.52
2023-04-04T06:10:34.010Z,5.69
2023-04-04T06:13:01.202Z,5.62
2023-04-04T06:15:30.117Z,5.54
2023-04-04T06:17:57.337Z,5.48
2023-04-04T06:20:25.075Z,5.42
2023-04-04T06:22:54.262Z,5.39
2023-04-04T06:25:21.944Z,5.40
2023-04-04T06:27:49.534Z,5.48
2023-04-04T06:30:18.193Z,5.59
2023-04-04T06:32:49.829Z,5.59
2023-04-04T06:35:21.943Z,5.56
2023-04-04T06:37:57.623Z,5.57
2023-04-04T06:40:26.646Z,5.47
2023-04-04T06:42:58.592Z,5.75
2023-04-04T06:45:35.794Z,5.86
2023-04-04T06:48:03.714Z,5.95
2023-04-04T06:50:34.050Z,5.95
2023-04-04T06:53:04.237Z,5.89
2023-04-04T06:55:33.377Z,5.77
2023-04-04T06:58:01.144Z,5.83
2023-04-04T07:00:28.568Z,5.66
2023-04-04T07:03:01.073Z,5.82
2023-04-04T07:05:29.140Z,5.73
2023-04-04T07:07:57.199Z,5.81
2023-04-04T07:10:26.007Z,5.95
2023-04-04T07:12:53.043Z,6.10
2023-04-04T07:15:20.312Z,6.05
2023-04-04T07:17:47.758Z,6.21
2023-04-04T07:20:15.073Z,6.36
2023-04-04T07:22:44.289Z,6.43
2023-04-04T07:25:13.154Z,6.37
2023-04-04T07:27:43.547Z,6.28
2023-04-04T07:30:12.022Z,6.45
2023-04-04T07:32:39.541Z,6.66
2023-04-04T07:35:08.385Z,6.81
2023-04-04T07:37:38.816Z,6.80
2023-04-04T07:40:09.416Z,6.93
2023-04-04T07:42:37.991Z,7.01
2023-04-04T07:45:05.601Z,6.98
2023-04-04T07:47:32.808Z,6.76
2023-04-04T07:49:59.924Z,7.02
2023-04-04T07:52:27.111Z,6.97
2023-04-04T07:54:54.754Z,7.03
2023-04-04T07:57:22.009Z,7.32
2023-04-04T07:59:49.299Z,7.51
2023-04-04T08:02:16.558Z,7.11
2023-04-04T08:04:43.804Z,7.61
2023-04-04T08:07:11.016Z,7.56
2023-04-04T08:09:38.187Z,7.73
2023-04-04T08:12:08.184Z,7.74
2023-04-04T08:14:35.467Z,7.67
2023-04-04T08:17:03.115Z,8.04
2023-04-04T08:19:30.707Z,7.99
2023-04-04T08:21:57.858Z,7.52
2023-04-04T08:24:27.047Z,7.92
2023-04-04T08:27:04.577Z,7.64
2023-04-04T08:29:34.188Z,7.29
2023-04-04T08:32:01.311Z,7.65
2023-04-04T08:34:28.720Z,8.20
2023-04-04T08:36:56.944Z,7.95
2023-04-04T08:39:24.160Z,7.19
2023-04-04T08:42:16.867Z,7.86
2023-04-04T08:44:45.974Z,7.64
2023-04-04T08:47:14.594Z,7.70
2023-04-04T08:49:46.267Z,8.18
2023-04-04T08:52:19.206Z,8.25
2023-04-04T08:54:47.935Z,8.59
2023-04-04T08:57:15.640Z,8.74
2023-04-04T08:59:43.196Z,8.46
2023-04-04T09:02:10.810Z,7.64
2023-04-04T09:04:40.867Z,7.28
2023-04-04T09:07:09.756Z,7.61
2023-04-04T09:09:38.955Z,8.17
2023-04-04T09:12:06.818Z,7.92
2023-04-04T09:14:37.299Z,7.91
2023-04-04T09:17:04.553Z,8.42
2023-04-04T09:19:31.788Z,9.42
2023-04-04T09:21:58.989Z,9.36
2023-04-04T09:24:42.416Z,7.70
2023-04-04T09:27:11.977Z,8.49
2023-04-04T09:29:41.683Z,9.05
2023-04-04T09:32:23.113Z,9.15
2023-04-04T09:34:50.598Z,8.01
2023-04-04T09:37:18.390Z,9.16
2023-04-04T09:39:45.840Z,8.92
2023-04-04T09:42:13.602Z,9.57
2023-04-04T09:44:40.807Z,9.85
2023-04-04T09:47:31.525Z,9.70
2023-04-04T09:50:03.989Z,9.11
2023-04-04T09:52:37.564Z,9.11
2023-04-04T09:55:06.727Z,7.87
2023-04-04T09:57:36.267Z,8.57
2023-04-04T10:00:11.503Z,9.47
2023-04-04T10:02:46.995Z,9.83
2023-04-04T10:05:14.777Z,9.13
2023-04-04T10:07:44.111Z,8.83
2023-04-04T10:10:11.530Z,9.39
2023-04-04T10:12:38.888Z,9.64
2023-04-04T10:15:07.198Z,10.03
2023-04-04T10:17:39.992Z,10.53
2023-04-04T10:20:11.540Z,9.40
2023-04-04T10:22:40.206Z,8.80
2023-04-04T10:25:09.824Z,8.99
2023-04-04T10:27:38.648Z,8.56
2023-04-04T10:30:07.991Z,9.69
2023-04-04T10:33:02.599Z,10.07
2023-04-04T10:35:30.954Z,10.28
2023-04-04T10:38:01.916Z,10.78
2023-04-04T10:40:38.000Z,8.62
2023-04-04T10:43:08.416Z,9.33
2023-04-04T10:45:40.062Z,9.55
2023-04-04T10:48:10.546Z,9.85
2023-04-04T10:50:39.345Z,9.33
2023-04-04T10:53:07.830Z,10.18
2023-04-04T10:55:37.324Z,10.95
2023-04-04T10:58:05.302Z,10.93
2023-04-04T11:00:32.887Z,11.03
2023-04-04T11:03:02.320Z,13.56
2023-04-04T11:05:47.019Z,11.65
2023-04-04T11:08:24.812Z,11.16
2023-04-04T11:10:54.843Z,10.48
2023-04-04T11:13:35.725Z,16.07
2023-04-04T11:16:17.957Z,15.44
2023-04-04T11:18:48.756Z,14.40
2023-04-04T11:21:26.454Z,13.09
2023-04-04T11:24:15.481Z,12.08
2023-04-04T11:26:45.333Z,14.92
2023-04-04T11:29:22.633Z,17.14
2023-04-04T11:31:50.820Z,19.62
2023-04-04T11:34:32.925Z,16.40
2023-04-04T11:37:20.107Z,15.30
2023-04-04T11:39:50.754Z,16.80
2023-04-04T11:42:21.435Z,13.65
2023-04-04T11:44:51.773Z,11.53
2023-04-04T11:47:23.501Z,10.93
2023-04-04T11:49:53.829Z,11.56
2023-04-04T11:52:21.502Z,10.95
2023-04-04T11:54:50.114Z,10.27
2023-04-04T11:57:20.166Z,11.16
2023-04-04T11:59:50.784Z,11.44
2023-04-04T12:02:29.933Z,10.35
2023-04-04T12:04:59.380Z,11.32
2023-04-04T12:07:28.923Z,10.77
2023-04-04T12:09:57.793Z,11.07
2023-04-04T12:12:26.969Z,11.80
2023-04-04T12:15:06.287Z,12.78
2023-04-04T12:17:44.175Z,12.83
2023-04-04T12:20:11.708Z,10.77
2023-04-04T12:22:39.623Z,11.99
2023-04-04T12:25:07.820Z,11.93
2023-04-04T12:27:36.703Z,11.30
2023-04-04T12:30:07.844Z,11.82
2023-04-04T12:32:35.092Z,12.79
2023-04-04T12:35:03.740Z,12.93
2023-04-04T12:37:31.211Z,13.40
2023-04-04T12:39:59.037Z,13.44
2023-04-04T12:42:26.553Z,12.32
2023-04-04T12:44:54.674Z,12.28
2023-04-04T12:47:24.902Z,12.31
2023-04-04T12:49:57.369Z,11.99
2023-04-04T12:52:33.582Z,12.28
2023-04-04T12:55:09.914Z,12.09
2023-04-04T12:57:39.897Z,11.73
2023-04-04T13:00:09.202Z,11.27
2023-04-04T13:02:38.606Z,12.43
2023-04-04T13:05:07.437Z,12.42
2023-04-04T13:07:43.607Z,12.73
2023-04-04T13:10:15.800Z,11.93
2023-04-04T13:13:01.537Z,12.45
2023-04-04T13:15:52.608Z,10.88
2023-04-04T13:18:24.651Z,10.80
2023-04-04T13:20:54.447Z,11.97
2023-04-04T13:23:22.907Z,12.89
2023-04-04T13:25:51.419Z,12.43
2023-04-04T13:28:18.741Z,11.60
2023-04-04T13:30:49.848Z,12.33
2023-04-04T13:33:22.156Z,12.45
2023-04-04T13:35:52.839Z,12.22
2023-04-04T13:38:20.053Z,12.33
2023-04-04T13:40:47.346Z,13.45
2023-04-04T13:43:15.297Z,13.65
2023-04-04T13:45:43.727Z,13.86
2023-04-04T13:48:14.232Z,13.39
2023-04-04T13:50:44.450Z,11.44
2023-04-04T13:53:11.832Z,11.49
2023-04-04T13:55:41.797Z,12.84
2023-04-04T13:58:20.563Z,13.52
2023-04-04T14:00:49.429Z,12.02
2023-04-04T14:03:17.754Z,13.51
2023-04-04T14:05:45.232Z,14.50
2023-04-04T14:08:12.447Z,15.26
2023-04-04T14:10:39.588Z,14.91
2023-04-04T14:13:06.818Z,12.85
2023-04-04T14:15:34.057Z,14.77
2023-04-04T14:18:01.237Z,13.91
2023-04-04T14:20:28.511Z,15.62
2023-04-04T14:22:55.756Z,15.49
2023-04-04T14:25:23.126Z,16.88
2023-04-04T14:27:50.803Z,19.66
2023-04-04T14:30:18.061Z,17.66
2023-04-04T14:32:46.297Z,17.92
2023-04-04T14:35:13.480Z,19.41
2023-04-04T14:37:40.749Z,16.88
2023-04-04T14:40:08.889Z,18.00
2023-04-04T14:42:36.289Z,20.01
2023-04-04T14:45:07.568Z,19.48
2023-04-04T14:47:35.896Z,22.40
2023-04-04T14:50:04.193Z,19.05
2023-04-04T14:52:31.352Z,16.22
2023-04-04T14:54:58.616Z,20.00
2023-04-04T14:57:25.767Z,19.68
2023-04-04T14:59:54.324Z,14.79
2023-04-04T15:02:22.133Z,14.86
2023-04-04T15:04:49.397Z,19.14
2023-04-04T15:07:17.470Z,21.69
2023-04-04T15:09:45.276Z,23.05
2023-04-04T15:12:12.659Z,23.78
2023-04-04T15:14:39.883Z,20.03
2023-04-04T15:17:07.140Z,22.37
2023-04-04T15:19:34.259Z,21.82
2023-04-04T15:22:01.546Z,22.37
2023-04-04T15:24:28.744Z,20.92
2023-04-04T15:26:57.790Z,16.08
2023-04-04T15:29:25.075Z,15.20
2023-04-04T15:31:52.383Z,17.39
2023-04-04T15:34:19.627Z,14.45
2023-04-04T15:36:46.907Z,15.35
2023-04-04T15:39:14.153Z,18.83
2023-04-04T15:41:41.319Z,21.94
2023-04-04T15:44:08.566Z,21.60
2023-04-04T15:46:35.847Z,20.63
2023-04-04T15:49:04.112Z,21.34
2023-04-04T15:51:31.750Z,23.30
2023-04-04T15:53:58.875Z,23.18
2023-04-04T15:56:27.583Z,18.33
2023-04-04T15:58:55.822Z,14.90
2023-04-04T16:01:23.541Z,15.44
2023-04-04T16:03:50.829Z,14.34
2023-04-04T16:06:18.085Z,15.91
2023-04-04T16:08:45.666Z,14.93
2023-04-04T16:11:12.869Z,14.87
2023-04-04T16:13:40.093Z,14.82
2023-04-04T16:16:07.329Z,15.16
2023-04-04T16:18:37.026Z,16.12
2023-04-04T16:21:04.936Z,18.61
2023-04-04T16:23:32.533Z,20.07
2023-04-04T16:26:00.007Z,14.32
2023-04-04T16:28:27.391Z,13.76
2023-04-04T16:30:54.656Z,16.69
2023-04-04T16:33:24.096Z,18.44
2023-04-04T16:35:51.569Z,15.31
2023-04-04T16:38:18.769Z,16.63
2023-04-04T16:40:46.141Z,18.08
2023-04-04T16:43:13.386Z,17.88
2023-04-04T16:45:41.312Z,17.89
2023-04-04T16:48:09.062Z,18.70
2023-04-04T16:50:36.408Z,19.51
2023-04-04T16:53:04.189Z,14.34
2023-04-04T16:55:31.326Z,15.53
2023-04-04T16:57:58.918Z,17.00
2023-04-04T17:00:26.172Z,16.33
2023-04-04T17:02:53.517Z,14.45
2023-04-04T17:05:21.129Z,15.64
2023-04-04T17:07:48.406Z,15.17
2023-04-04T17:10:15.970Z,16.60
2023-04-04T17:12:43.709Z,15.86
2023-04-04T17:15:12.005Z,15.58
2023-04-04T17:17:39.209Z,14.92
2023-04-04T17:20:07.332Z,14.14
2023-04-04T17:22:34.506Z,15.07
2023-04-04T17:25:02.105Z,14.30
2023-04-04T17:27:29.415Z,13.98
2023-04-04T17:29:59.705Z,13.72
2023-04-04T17:32:27.078Z,13.31
2023-04-04T17:34:56.337Z,13.30
2023-04-04T17:37:23.813Z,12.37
2023-04-04T17:39:51.063Z,12.46
2023-04-04T17:42:18.492Z,12.38
2023-04-04T17:44:45.859Z,12.13
2023-04-04T17:47:13.880Z,12.10
2023-04-04T17:49:41.076Z,11.79
2023-04-04T17:52:08.808Z,11.66
2023-04-04T17:54:36.448Z,11.58
2023-04-04T17:57:03.769Z,11.09
2023-04-04T17:59:31.191Z,11.21
2023-04-04T18:01:58.359Z,11.10
2023-04-04T18:04:25.570Z,11.10
2023-04-04T18:06:54.426Z,10.98
2023-04-04T18:09:23.313Z,10.87
2023-04-04T18:11:51.230Z,10.69
2023-04-04T18:14:18.608Z,10.68
2023-04-04T18:16:47.450Z,10.55
2023-04-04T18:19:14.720Z,10.45
2023-04-04T18:21:41.866Z,10.14
2023-04-04T18:24:11.246Z,10.02
2023-04-04T18:26:38.750Z,10.00
2023-04-04T18:29:06.142Z,9.99
2023-04-04T18:31:33.716Z,9.96
2023-04-04T18:34:01.184Z,9.98
2023-04-04T18:36:28.545Z,9.95
2023-04-04T18:38:55.844Z,9.70
2023-04-04T18:41:23.586Z,9.63
2023-04-04T18:43:51.072Z,9.68
2023-04-04T18:46:18.278Z,9.55
2023-04-04T18:48:45.436Z,9.56
2023-04-04T18:51:12.598Z,9.57
2023-04-04T18:53:39.801Z,9.45
2023-04-04T18:56:07.015Z,9.44
2023-04-04T18:58:34.338Z,9.28
2023-04-04T19:01:03.860Z,9.28
2023-04-04T19:03:44.519Z,9.15
2023-04-04T19:06:12.652Z,9.14
2023-04-04T19:08:42.097Z,9.05
2023-04-04T19:11:10.908Z,8.69
2023-04-04T19:13:39.006Z,8.56
2023-04-04T19:16:06.653Z,8.56
2023-04-04T19:18:34.061Z,8.63
2023-04-04T19:21:01.196Z,8.48
2023-04-04T19:23:28.627Z,8.53
2023-04-04T19:25:55.917Z,8.48
2023-04-04T19:28:23.176Z,8.40
2023-04-04T19:30:52.489Z,8.46
2023-04-04T19:33:24.115Z,8.36
2023-04-04T19:35:55.729Z,8.35
2023-04-04T19:38:35.777Z,8.31
2023-04-04T19:41:14.367Z,8.29
2023-04-04T19:43:45.419Z,8.24
2023-04-04T19:46:29.214Z,8.19
2023-04-04T19:49:11.990Z,8.13
2023-04-04T19:51:57.231Z,8.02
2023-04-04T19:54:34.094Z,7.87
2023-04-04T19:57:07.318Z,7.85
2023-04-04T19:59:59.323Z,7.82
2023-04-04T20:02:36.187Z,7.80
2023-04-04T20:05:29.166Z,7.63
2023-04-04T20:07:56.341Z,7.61
2023-04-04T20:10:42.054Z,7.57
2023-04-04T20:13:10.011Z,7.48
2023-04-04T20:16:00.613Z,7.29
2023-04-04T20:18:32.900Z,7.33
2023-04-04T20:21:12.812Z,7.31
2023-04-04T20:23:58.473Z,7.24
2023-04-04T20:26:56.596Z,7.23
2023-04-04T20:29:31.362Z,7.19
2023-04-04T20:32:08.266Z,7.22
2023-04-04T20:34:49.322Z,7.16
2023-04-04T20:37:23.007Z,7.15
2023-04-04T20:40:09.904Z,7.21
2023-04-04T20:42:40.216Z,7.10
2023-04-04T20:45:11.108Z,7.10
2023-04-04T20:47:45.815Z,7.04
2023-04-04T20:50:20.816Z,7.03
2023-04-04T20:53:03.591Z,6.94
2023-04-04T20:55:34.694Z,6.89
2023-04-04T20:58:20.644Z,6.76
2023-04-04T21:00:47.891Z,6.69
2023-04-04T21:03:28.374Z,6.73
2023-04-04T21:06:16.848Z,6.66
2023-04-04T21:08:51.500Z,6.65
2023-04-04T21:11:28.878Z,6.47
2023-04-04T21:13:56.976Z,6.42
2023-04-04T21:16:27.713Z,6.39
2023-04-04T21:19:00.066Z,6.33
2023-04-04T21:21:28.807Z,6.34
2023-04-04T21:23:59.941Z,6.31
2023-04-04T21:26:38.052Z,6.31
2023-04-04T21:29:08.657Z,6.27
2023-04-04T21:31:46.744Z,6.35
2023-04-04T21:34:21.060Z,6.17
2023-04-04T21:36:51.843Z,6.22
2023-04-04T21:39:30.595Z,6.07
2023-04-04T21:42:09.012Z,5.96
2023-04-04T21:44:36.548Z,5.89
2023-04-04T21:47:03.743Z,5.92
2023-04-04T21:49:30.854Z,5.97
2023-04-04T21:51:58.314Z,5.89
2023-04-04T21:54:25.631Z,5.92
2023-04-04T21:56:52.807Z,5.97
2023-04-04T21:59:20.135Z,6.02
2023-04-04T22:01:47.420Z,5.98
2023-04-04T22:04:14.618Z,5.88
2023-04-04T22:06:42.658Z,5.71
2023-04-04T22:09:10.642Z,5.66
2023-04-04T22:11:44.283Z,5.54
2023-04-04T22:14:17.183Z,5.53
2023-04-04T22:16:44.699Z,5.64
2023-04-04T22:19:12.055Z,5.61
2023-04-04T22:21:46.604Z,5.51
2023-04-04T22:24:13.886Z,5.59
2023-04-04T22:26:41.673Z,5.70
2023-04-04T22:29:09.064Z,5.66
2023-04-04T22:31:37.859Z,5.57
2023-04-04T22:34:06.200Z,5.46
2023-04-04T22:36:35.341Z,5.47
2023-04-04T22:39:03.053Z,5.50
2023-04-04T22:41:30.376Z,5.46
2023-04-04T22:43:58.229Z,5.35
2023-04-04T22:46:28.817Z,5.26
2023-04-04T22:49:06.922Z,5.16
2023-04-04T22:51:43.673Z,5.20
2023-04-04T22:54:16.426Z,5.15
2023-04-04T22:56:44.168Z,5.07
2023-04-04T22:59:11.669Z,5.06
2023-04-04T23:01:39.469Z,4.97
2023-04-04T23:04:07.225Z,4.91
2023-04-04T23:06:35.754Z,4.93
2023-04-04T23:09:03.244Z,4.84
2023-04-04T23:11:30.567Z,4.89
2023-04-04T23:13:58.116Z,4.81
2023-04-04T23:16:26.170Z,4.81
2023-04-04T23:18:53.758Z,4.78
2023-04-04T23:21:21.935Z,4.69
2023-04-04T23:23:49.360Z,4.68
2023-04-04T23:26:16.558Z,4.67
2023-04-04T23:28:43.709Z,4.66
2023-04-04T23:31:10.948Z,4.58
2023-04-04T23:33:38.162Z,4.57
2023-04-04T23:36:06.169Z,4.51
2023-04-04T23:38:33.355Z,4.46
2023-04-04T23:41:00.490Z,4.45
2023-04-04T23:43:28.350Z,4.44
2023-04-04T23:45:55.583Z,4.47
2023-04-04T23:48:22.811Z,4.47
2023-04-04T23:50:50.106Z,4.37
2023-04-04T23:53:17.361Z,4.36
2023-04-04T23:55:44.520Z,4.37
2023-04-04T23:58:11.930Z,4.43
